Time;durP1;ratioP1;P1;durP2;ratioP2;P2;SDS_P1;SDS_P2;PMS_P1;PMS_P2;Temp;Humidity;BMP_temperature;BMP_pressure;BME280_temperature;BME280_humidity;BME280_pressure;Samples;Min_cycle;Max_cycle;Signal;HPM_P1;HPM_P2
2023/11/24 00:01:38;;;;;;;121.82;10.73;;;;;;;-148.24;100.00;61531.34;4983477;28;20536;-54
2023/11/24 00:04:04;;;;;;;70.28;7.80;;;;;;;-148.24;100.00;61531.34;4988648;28;20452;-54
2023/11/24 00:06:32;;;;;;;104.25;8.82;;;;;;;-148.24;100.00;61531.34;4984784;28;20042;-55
2023/11/24 00:08:58;;;;;;;95.90;9.65;;;;;;;-148.24;100.00;61531.34;4986643;28;20330;-54
2023/11/24 00:11:24;;;;;;;93.38;9.38;;;;;;;-148.24;100.00;61531.34;4987065;28;20030;-54
2023/11/24 00:13:49;;;;;;;83.05;6.10;;;;;;;-148.24;100.00;61531.34;4988764;28;20029;-55
2023/11/24 00:16:15;;;;;;;62.58;5.80;;;;;;;-148.24;100.00;61531.34;4987094;28;20052;-54
2023/11/24 00:18:41;;;;;;;162.50;62.17;;;;;;;-148.24;100.00;61531.34;4987248;28;20509;-54
2023/11/24 00:21:06;;;;;;;79.20;7.55;;;;;;;-148.24;100.00;61531.34;4986170;28;20057;-54
2023/11/24 00:23:33;;;;;;;97.90;8.13;;;;;;;-148.24;100.00;61531.34;4987075;28;20465;-54
2023/11/24 00:25:59;;;;;;;68.28;6.53;;;;;;;-148.24;100.00;61531.34;4987132;28;20034;-54
2023/11/24 00:28:25;;;;;;;94.82;7.82;;;;;;;-148.24;100.00;61531.34;4985226;28;20037;-55
2023/11/24 00:30:50;;;;;;;92.55;10.50;;;;;;;-148.24;100.00;61531.34;4987126;28;20050;-55
2023/11/24 00:33:18;;;;;;;76.75;6.95;;;;;;;-148.24;100.00;61531.34;4986643;28;20099;-55
2023/11/24 00:35:45;;;;;;;89.90;6.40;;;;;;;-148.24;100.00;61531.34;4985087;28;20522;-54
2023/11/24 00:38:11;;;;;;;80.63;7.45;;;;;;;-148.24;100.00;61531.34;4986646;28;20254;-55
2023/11/24 00:40:40;;;;;;;176.00;37.63;;;;;;;-148.24;100.00;61531.34;4987410;28;20042;-54
2023/11/24 00:43:07;;;;;;;70.97;7.45;;;;;;;-148.24;100.00;61531.34;4987261;28;20028;-56
2023/11/24 00:45:33;;;;;;;86.78;7.72;;;;;;;-148.24;100.00;61531.34;4987068;28;20254;-55
2023/11/24 00:47:58;;;;;;;60.15;6.10;;;;;;;-148.24;100.00;61531.34;4988696;28;20022;-54
2023/11/24 00:50:24;;;;;;;88.60;7.43;;;;;;;-148.24;100.00;61531.34;4986143;28;20422;-54
2023/11/24 00:52:49;;;;;;;51.63;5.18;;;;;;;-148.24;100.00;61531.34;4985831;28;20145;-55
2023/11/24 00:55:15;;;;;;;69.07;6.68;;;;;;;-148.24;100.00;61531.34;4984927;28;20054;-54
2023/11/24 00:57:40;;;;;;;180.75;28.50;;;;;;;-148.24;100.00;61531.34;4986028;28;20072;-55
2023/11/24 01:00:08;;;;;;;57.45;7.30;;;;;;;-148.24;100.00;61531.34;4987412;28;20034;-55
2023/11/24 01:02:36;;;;;;;102.63;7.93;;;;;;;-148.24;100.00;61531.34;4987442;28;20124;-54
2023/11/24 01:05:02;;;;;;;83.55;6.53;;;;;;;-148.24;100.00;61531.34;4986357;28;20469;-54
2023/11/24 01:07:27;;;;;;;112.35;9.68;;;;;;;-148.24;100.00;61531.34;4984401;28;20567;-54
2023/11/24 01:09:53;;;;;;;107.15;7.78;;;;;;;-148.24;100.00;61531.34;4986282;28;20077;-55
2023/11/24 01:12:18;;;;;;;87.43;7.20;;;;;;;-148.24;100.00;61531.34;4986258;28;20050;-54
2023/11/24 01:14:43;;;;;;;69.15;6.43;;;;;;;-148.24;100.00;61531.34;4986271;28;20517;-56
2023/11/24 01:17:09;;;;;;;79.68;6.57;;;;;;;-148.24;100.00;61531.34;4986765;28;20072;-55
2023/11/24 01:19:36;;;;;;;125.57;8.80;;;;;;;-148.24;100.00;61531.34;4986549;28;20636;-55
2023/11/24 01:22:01;;;;;;;61.90;6.03;;;;;;;-148.24;100.00;61531.34;4986015;28;20045;-54
2023/11/24 01:24:27;;;;;;;95.95;7.88;;;;;;;-148.24;100.00;61531.34;4983868;28;20077;-54
2023/11/24 01:26:54;;;;;;;68.88;6.80;;;;;;;-148.24;100.00;61531.34;4986970;28;20125;-54
2023/11/24 01:29:19;;;;;;;109.40;15.68;;;;;;;-148.24;100.00;61531.34;4986070;28;20099;-54
2023/11/24 01:31:45;;;;;;;68.80;8.35;;;;;;;-148.24;100.00;61531.34;4984644;28;20050;-55
2023/11/24 01:34:10;;;;;;;70.13;5.82;;;;;;;-148.24;100.00;61531.34;4986489;28;20169;-54
2023/11/24 01:36:36;;;;;;;116.82;9.88;;;;;;;-148.24;100.00;61531.34;4984972;28;20133;-54
2023/11/24 01:39:04;;;;;;;101.57;8.27;;;;;;;-148.24;100.00;61531.34;4987960;28;20536;-54
2023/11/24 01:41:29;;;;;;;78.45;7.07;;;;;;;-148.24;100.00;61531.34;4984709;28;20353;-55
2023/11/24 01:43:59;;;;;;;115.00;16.58;;;;;;;-148.24;100.00;61531.34;4985806;28;20498;-54
2023/11/24 01:46:25;;;;;;;87.10;7.65;;;;;;;-148.24;100.00;61531.34;4983704;28;20703;-56
2023/11/24 01:48:51;;;;;;;75.18;6.72;;;;;;;-148.24;100.00;61531.34;4991840;28;20049;-54
2023/11/24 01:51:17;;;;;;;119.55;13.43;;;;;;;-148.24;100.00;61531.34;4983588;28;20041;-54
2023/11/24 01:53:42;;;;;;;109.70;8.85;;;;;;;-148.24;100.00;61531.34;4985506;28;20049;-54
2023/11/24 01:56:08;;;;;;;69.68;7.25;;;;;;;-148.24;100.00;61531.34;4987252;28;20132;-55
2023/11/24 01:58:34;;;;;;;118.07;9.52;;;;;;;-148.24;100.00;61531.34;4984935;28;20510;-55
2023/11/24 02:01:00;;;;;;;63.00;6.50;;;;;;;-148.24;100.00;61531.34;4987107;28;20981;-54
2023/11/24 02:03:25;;;;;;;87.68;7.65;;;;;;;-148.24;100.00;61531.34;4986571;28;20497;-55
2023/11/24 02:05:51;;;;;;;88.38;7.35;;;;;;;-148.24;100.00;61531.34;4990850;28;20206;-54
2023/11/24 02:08:16;;;;;;;131.18;24.50;;;;;;;-148.24;100.00;61531.34;4986543;28;20591;-54
2023/11/24 02:10:43;;;;;;;105.85;9.05;;;;;;;-148.24;100.00;61531.34;4984832;28;20042;-55
2023/11/24 02:13:08;;;;;;;78.85;6.55;;;;;;;-148.24;100.00;61531.34;4984663;28;20034;-54
2023/11/24 02:15:33;;;;;;;95.85;6.97;;;;;;;-148.24;100.00;61531.34;4985163;28;20038;-54
2023/11/24 02:17:59;;;;;;;108.70;8.82;;;;;;;-148.24;100.00;61531.34;4986605;28;20030;-55
2023/11/24 02:20:26;;;;;;;109.35;8.00;;;;;;;-148.24;100.00;61531.34;4985213;28;20044;-54
2023/11/24 02:22:51;;;;;;;70.22;6.28;;;;;;;-148.24;100.00;61531.34;4984854;28;20926;-55
2023/11/24 02:25:17;;;;;;;93.85;8.02;;;;;;;-148.24;100.00;61531.34;4986564;28;20037;-55
2023/11/24 02:27:42;;;;;;;146.35;17.42;;;;;;;-148.24;100.00;61531.34;4984044;28;20444;-55
2023/11/24 02:30:09;;;;;;;70.82;6.45;;;;;;;-148.24;100.00;61531.34;4986131;28;20114;-54
2023/11/24 02:32:35;;;;;;;111.38;8.02;;;;;;;-148.24;100.00;61531.34;4984695;28;20026;-55
2023/11/24 02:35:01;;;;;;;67.45;6.13;;;;;;;-148.24;100.00;61531.34;4985850;28;20045;-55
2023/11/24 02:37:26;;;;;;;67.57;5.22;;;;;;;-148.24;100.00;61531.34;4985111;28;21661;-54
2023/11/24 02:39:53;;;;;;;89.05;7.50;;;;;;;-148.24;100.00;61531.34;4981357;28;20482;-54
2023/11/24 02:42:18;;;;;;;80.10;8.63;;;;;;;-148.24;100.00;61531.34;4985720;28;20529;-54
2023/11/24 02:44:44;;;;;;;101.55;7.90;;;;;;;-148.24;100.00;61531.34;4984193;28;20038;-55
2023/11/24 02:47:10;;;;;;;81.30;6.30;;;;;;;-148.24;100.00;61531.34;4985824;28;20034;-54
2023/11/24 02:49:37;;;;;;;114.82;8.95;;;;;;;-148.24;100.00;61531.34;4982897;28;20566;-55
2023/11/24 02:52:03;;;;;;;87.72;6.55;;;;;;;-148.24;100.00;61531.34;4982853;28;20050;-55
2023/11/24 02:54:28;;;;;;;106.90;7.97;;;;;;;-148.24;100.00;61531.34;4983845;28;20030;-54
2023/11/24 02:56:54;;;;;;;72.10;7.82;;;;;;;-148.24;100.00;61531.34;4986399;28;20124;-54
2023/11/24 02:59:19;;;;;;;124.35;11.05;;;;;;;-148.24;100.00;61531.34;4984607;28;20030;-55
2023/11/24 03:01:45;;;;;;;124.68;9.25;;;;;;;-148.24;100.00;61531.34;4986117;28;20089;-55
2023/11/24 03:04:12;;;;;;;82.63;9.13;;;;;;;-148.24;100.00;61531.34;4990165;28;20041;-55
2023/11/24 03:06:41;;;;;;;164.73;22.67;;;;;;;-148.24;100.00;61531.34;4984517;28;20043;-54
2023/11/24 03:09:09;;;;;;;85.88;7.68;;;;;;;-148.24;100.00;61531.34;4986923;28;20455;-54
2023/11/24 03:11:38;;;;;;;97.10;8.52;;;;;;;-148.24;100.00;61531.34;4987022;28;20096;-54
2023/11/24 03:14:04;;;;;;;110.25;11.50;;;;;;;-148.24;100.00;61531.34;4986868;28;20485;-54
2023/11/24 03:16:32;;;;;;;200.38;56.15;;;;;;;-148.24;100.00;61531.34;4987339;28;20101;-54
2023/11/24 03:18:57;;;;;;;63.95;5.45;;;;;;;-148.24;100.00;61531.34;4989036;28;20065;-54
2023/11/24 03:21:23;;;;;;;87.32;6.10;;;;;;;-148.24;100.00;61531.34;4989179;28;20038;-54
2023/11/24 03:23:48;;;;;;;73.78;4.85;;;;;;;-148.24;100.00;61531.34;4988286;28;20042;-54
2023/11/24 03:26:13;;;;;;;106.80;6.65;;;;;;;-148.24;100.00;61531.34;4988791;28;20059;-53
2023/11/24 03:28:39;;;;;;;106.97;6.85;;;;;;;-148.24;100.00;61531.34;4988589;28;20033;-54
2023/11/24 03:31:05;;;;;;;81.65;5.65;;;;;;;-148.24;100.00;61531.34;4988159;28;20069;-54
2023/11/24 03:33:30;;;;;;;87.57;5.82;;;;;;;-148.24;100.00;61531.34;4986686;28;20555;-53
2023/11/24 03:35:56;;;;;;;71.60;5.18;;;;;;;-148.24;100.00;61531.34;4988209;28;20442;-53
2023/11/24 03:38:22;;;;;;;86.97;5.60;;;;;;;-148.24;100.00;61531.34;4988687;28;20397;-54
2023/11/24 03:40:51;;;;;;;128.73;7.75;;;;;;;-148.24;100.00;61531.34;4986815;28;20721;-54
2023/11/24 03:43:17;;;;;;;89.80;5.68;;;;;;;-148.24;100.00;61531.34;4989409;28;20141;-54
2023/11/24 03:45:43;;;;;;;114.43;7.28;;;;;;;-148.24;100.00;61531.34;4987590;28;20122;-54
2023/11/24 03:48:09;;;;;;;102.57;6.07;;;;;;;-148.24;100.00;61531.34;4986801;28;20121;-53
2023/11/24 03:50:35;;;;;;;110.70;6.72;;;;;;;-148.24;100.00;61531.34;4985724;28;20038;-54
2023/11/24 03:53:00;;;;;;;77.22;4.95;;;;;;;-148.24;100.00;61531.34;4986645;28;20026;-53
2023/11/24 03:55:25;;;;;;;77.78;5.22;;;;;;;-148.24;100.00;61531.34;4988197;28;20033;-54
2023/11/24 03:57:51;;;;;;;71.03;4.70;;;;;;;-148.24;100.00;61531.34;4985447;28;20037;-54
2023/11/24 04:00:16;;;;;;;90.70;5.88;;;;;;;-148.24;100.00;61531.34;4985581;28;20599;-54
2023/11/24 04:02:42;;;;;;;124.65;7.55;;;;;;;-148.24;100.00;61531.34;4985134;28;20084;-55
2023/11/24 04:05:10;;;;;;;63.30;4.75;;;;;;;-148.24;100.00;61531.34;4987058;28;20034;-55
2023/11/24 04:07:38;;;;;;;141.05;8.85;;;;;;;-148.24;100.00;61531.34;4985154;28;20030;-55
2023/11/24 04:10:03;;;;;;;67.45;4.57;;;;;;;-148.24;100.00;61531.34;4987726;28;20045;-55
2023/11/24 04:12:29;;;;;;;63.83;4.53;;;;;;;-148.24;100.00;61531.34;4987175;28;20042;-55
2023/11/24 04:14:54;;;;;;;103.30;6.18;;;;;;;-148.24;100.00;61531.34;4988047;28;20022;-53
2023/11/24 04:17:19;;;;;;;62.65;4.22;;;;;;;-148.24;100.00;61531.34;4985901;28;20461;-54
2023/11/24 04:19:45;;;;;;;100.78;6.93;;;;;;;-148.24;100.00;61531.34;4985944;28;20212;-54
2023/11/24 04:22:10;;;;;;;94.32;5.80;;;;;;;-148.24;100.00;61531.34;4985960;28;20053;-54
2023/11/24 04:24:38;;;;;;;91.18;5.65;;;;;;;-148.24;100.00;61531.34;4984987;28;20041;-54
2023/11/24 04:27:04;;;;;;;87.65;6.00;;;;;;;-148.24;100.00;61531.34;4986529;28;20026;-54
2023/11/24 04:29:29;;;;;;;98.03;6.03;;;;;;;-148.24;100.00;61531.34;4988341;28;20278;-54
2023/11/24 04:31:55;;;;;;;65.75;4.35;;;;;;;-148.24;100.00;61531.34;4986931;28;20045;-54
2023/11/24 04:34:23;;;;;;;100.68;6.13;;;;;;;-148.24;100.00;61531.34;4985357;28;20103;-54
2023/11/24 04:36:49;;;;;;;124.68;8.02;;;;;;;-148.24;100.00;61531.34;4985314;28;20046;-54
2023/11/24 04:39:15;;;;;;;111.45;6.38;;;;;;;-148.24;100.00;61531.34;4988068;28;20052;-54
2023/11/24 04:41:41;;;;;;;128.75;8.10;;;;;;;-148.24;100.00;61531.34;4984710;28;20034;-53
2023/11/24 04:44:06;;;;;;;72.63;4.43;;;;;;;-148.24;100.00;61531.34;4988263;28;20044;-54
2023/11/24 04:46:32;;;;;;;45.05;3.15;;;;;;;-148.24;100.00;61531.34;4987764;28;20344;-54
2023/11/24 04:49:02;;;;;;;126.32;7.05;;;;;;;-148.24;100.00;61531.34;4986075;28;20605;-54
2023/11/24 04:51:29;;;;;;;78.80;5.00;;;;;;;-148.24;100.00;61531.34;4985404;28;20073;-54
2023/11/24 04:53:57;;;;;;;81.95;5.18;;;;;;;-148.24;100.00;61531.34;4986066;28;20038;-54
2023/11/24 04:56:25;;;;;;;107.80;6.18;;;;;;;-148.24;100.00;61531.34;4984881;28;20133;-54
2023/11/24 04:58:51;;;;;;;111.15;6.75;;;;;;;-148.24;100.00;61531.34;4985093;28;20037;-53
2023/11/24 05:01:18;;;;;;;102.20;6.28;;;;;;;-148.24;100.00;61531.34;4999804;28;20033;-54
2023/11/24 05:03:44;;;;;;;131.93;8.80;;;;;;;-148.24;100.00;61531.34;4986174;28;20808;-53
2023/11/24 05:06:10;;;;;;;65.55;4.85;;;;;;;-148.24;100.00;61531.34;4986217;28;20144;-54
2023/11/24 05:08:37;;;;;;;87.03;6.10;;;;;;;-148.24;100.00;61531.34;4983608;28;20033;-54
2023/11/24 05:11:02;;;;;;;75.20;5.18;;;;;;;-148.24;100.00;61531.34;4985410;28;20065;-54
2023/11/24 05:13:28;;;;;;;81.07;5.47;;;;;;;-148.24;100.00;61531.34;4987509;28;20030;-54
2023/11/24 05:15:57;;;;;;;134.52;7.97;;;;;;;-148.24;100.00;61531.34;4984097;28;20046;-54
2023/11/24 05:18:23;;;;;;;92.57;5.95;;;;;;;-148.24;100.00;61531.34;4986149;28;20371;-54
2023/11/24 05:20:48;;;;;;;107.65;6.82;;;;;;;-148.24;100.00;61531.34;4983602;28;20591;-54
2023/11/24 05:23:14;;;;;;;108.68;7.20;;;;;;;-148.24;100.00;61531.34;4984618;28;20039;-54
2023/11/24 05:25:40;;;;;;;91.90;5.95;;;;;;;-148.24;100.00;61531.34;4984375;28;20034;-54
2023/11/24 05:28:05;;;;;;;77.45;5.18;;;;;;;-148.24;100.00;61531.34;4985988;28;20037;-54
2023/11/24 05:30:30;;;;;;;84.95;5.28;;;;;;;-148.24;100.00;61531.34;4984308;28;20034;-54
2023/11/24 05:32:56;;;;;;;70.50;5.10;;;;;;;-148.24;100.00;61531.34;4988317;28;20458;-54
2023/11/24 05:35:21;;;;;;;99.65;6.55;;;;;;;-148.24;100.00;61531.34;4982694;28;20042;-54
2023/11/24 05:37:47;;;;;;;120.90;7.82;;;;;;;-148.24;100.00;61531.34;4985440;28;20583;-54
2023/11/24 05:40:12;;;;;;;89.03;6.10;;;;;;;-148.24;100.00;61531.34;4985667;28;20018;-54
2023/11/24 05:42:38;;;;;;;71.15;5.43;;;;;;;-148.24;100.00;61531.34;4987194;28;20552;-54
2023/11/24 05:45:05;;;;;;;80.82;5.43;;;;;;;-148.24;100.00;61531.34;4985731;28;20155;-54
2023/11/24 05:47:31;;;;;;;70.18;4.65;;;;;;;-148.24;100.00;61531.34;4987077;28;20256;-54
2023/11/24 05:49:57;;;;;;;124.75;7.05;;;;;;;-148.24;100.00;61531.34;4983935;28;21961;-54
2023/11/24 05:52:22;;;;;;;87.20;5.68;;;;;;;-148.24;100.00;61531.34;4985141;28;20142;-53
2023/11/24 05:54:48;;;;;;;90.13;6.13;;;;;;;-148.24;100.00;61531.34;4985935;28;20053;-54
2023/11/24 05:57:13;;;;;;;113.32;7.03;;;;;;;-148.24;100.00;61531.34;4985783;28;20511;-53
2023/11/24 05:59:39;;;;;;;86.43;6.03;;;;;;;-148.24;100.00;61531.34;4984249;28;20054;-54
2023/11/24 06:02:04;;;;;;;72.05;5.05;;;;;;;-148.24;100.00;61531.34;4984636;28;20132;-54
2023/11/24 06:04:30;;;;;;;138.95;8.40;;;;;;;-148.24;100.00;61531.34;4984395;28;20032;-53
2023/11/24 06:06:56;;;;;;;98.72;6.50;;;;;;;-148.24;100.00;61531.34;4983719;28;20031;-54
2023/11/24 06:09:21;;;;;;;88.18;5.82;;;;;;;-148.24;100.00;61531.34;4986564;28;20445;-53
2023/11/24 06:11:46;;;;;;;133.55;8.00;;;;;;;-148.24;100.00;61531.34;4984151;28;20031;-53
2023/11/24 06:14:12;;;;;;;72.65;4.88;;;;;;;-148.24;100.00;61531.34;4986040;28;20054;-53
2023/11/24 06:16:37;;;;;;;60.95;4.65;;;;;;;-148.24;100.00;61531.34;4985538;28;20493;-52
2023/11/24 06:19:03;;;;;;;115.68;7.20;;;;;;;-148.24;100.00;61531.34;4984216;28;20116;-52
2023/11/24 06:21:29;;;;;;;77.10;5.32;;;;;;;-148.24;100.00;61531.34;4986405;28;20073;-53
2023/11/24 06:23:55;;;;;;;122.78;8.40;;;;;;;-148.24;100.00;61531.34;4984214;28;20023;-52
2023/11/24 06:26:20;;;;;;;109.40;6.20;;;;;;;-148.24;100.00;61531.34;4985354;28;20038;-52
2023/11/24 06:28:46;;;;;;;152.95;11.85;;;;;;;-148.24;100.00;61531.34;4984111;28;20377;-52
2023/11/24 06:31:15;;;;;;;84.55;5.38;;;;;;;-148.24;100.00;61531.34;4984446;28;20038;-53
2023/11/24 06:33:41;;;;;;;81.00;5.70;;;;;;;-148.24;100.00;61531.34;4984274;28;20353;-52
2023/11/24 06:36:08;;;;;;;78.45;5.20;;;;;;;-148.24;100.00;61531.34;4989673;28;20130;-52
2023/11/24 06:38:33;;;;;;;95.32;6.20;;;;;;;-148.24;100.00;61531.34;4987474;28;20497;-53
2023/11/24 06:40:59;;;;;;;68.15;4.97;;;;;;;-148.24;100.00;61531.34;4986941;28;20049;-52
2023/11/24 06:43:24;;;;;;;91.30;5.80;;;;;;;-148.24;100.00;61531.34;4989398;28;20053;-53
2023/11/24 06:45:50;;;;;;;146.65;10.48;;;;;;;-148.24;100.00;61531.34;4985107;28;20042;-52
2023/11/24 06:48:15;;;;;;;97.75;8.02;;;;;;;-148.24;100.00;61531.34;4988386;28;20097;-53
2023/11/24 06:50:41;;;;;;;81.53;6.25;;;;;;;-148.24;100.00;61531.34;4987211;28;20045;-52
2023/11/24 06:53:06;;;;;;;90.32;5.60;;;;;;;-148.24;100.00;61531.34;4988979;28;20034;-53
2023/11/24 06:55:31;;;;;;;81.75;5.65;;;;;;;-148.24;100.00;61531.34;4989142;28;20069;-52
2023/11/24 06:57:58;;;;;;;77.57;4.70;;;;;;;-148.24;100.00;61531.34;4988157;28;20116;-53
2023/11/24 07:00:25;;;;;;;131.27;7.45;;;;;;;-148.24;100.00;61531.34;4987476;28;20516;-52
2023/11/24 07:02:50;;;;;;;137.43;8.80;;;;;;;-148.24;100.00;61531.34;4985873;28;20397;-55
2023/11/24 07:05:17;;;;;;;89.68;5.65;;;;;;;-148.24;100.00;61531.34;4986196;28;20492;-55
2023/11/24 07:07:42;;;;;;;117.63;7.18;;;;;;;-148.24;100.00;61531.34;4986258;28;20015;-55
2023/11/24 07:10:11;;;;;;;80.75;5.18;;;;;;;7.13;100.00;98490.25;4985801;28;20021;-56
2023/11/24 07:12:37;;;;;;;73.50;4.90;;;;;;;4.11;100.00;97124.69;4988705;28;20014;-53
2023/11/24 07:15:03;;;;;;;117.22;6.82;;;;;;;4.23;100.00;97124.78;4983398;28;20037;-53
2023/11/24 07:17:31;;;;;;;71.47;5.43;;;;;;;4.30;100.00;97134.28;4986191;28;20057;-55
2023/11/24 07:19:57;;;;;;;152.40;9.60;;;;;;;4.32;100.00;97118.00;4987457;28;20018;-55
2023/11/24 07:22:24;;;;;;;101.68;5.68;;;;;;;4.42;100.00;97114.66;4987089;28;20038;-54
2023/11/24 07:24:50;;;;;;;140.70;8.25;;;;;;;4.51;100.00;97122.44;4987155;28;20029;-55
2023/11/24 07:27:17;;;;;;;107.80;6.80;;;;;;;6.27;100.00;97111.00;4994839;28;20244;-55
2023/11/24 07:29:43;;;;;;;79.45;5.38;;;;;;;6.63;100.00;97110.09;4989498;28;20030;-55
2023/11/24 07:32:10;;;;;;;79.35;4.93;;;;;;;5.94;100.00;97123.84;4987725;28;20116;-55
2023/11/24 07:34:35;;;;;;;95.60;5.47;;;;;;;5.41;100.00;97121.13;4986969;28;20124;-53
2023/11/24 07:37:01;;;;;;;91.55;5.70;;;;;;;5.50;100.00;97112.59;4983498;28;20112;-56
2023/11/24 07:39:30;;;;;;;93.85;6.28;;;;;;;5.74;100.00;97116.94;4985835;28;20442;-55
2023/11/24 07:41:58;;;;;;;169.35;9.80;;;;;;;5.71;100.00;97120.38;4985241;28;20073;-55
2023/11/24 07:44:23;;;;;;;97.32;6.22;;;;;;;6.08;100.00;97124.75;4987453;28;20036;-52
2023/11/24 07:46:49;;;;;;;141.50;8.43;;;;;;;6.13;100.00;97124.78;4985801;28;20038;-52
2023/11/24 07:49:14;;;;;;;135.05;7.55;;;;;;;6.06;100.00;97123.03;4987050;28;20029;-52
2023/11/24 07:51:39;;;;;;;71.28;4.85;;;;;;;6.05;100.00;97118.75;4990248;28;20045;-52
2023/11/24 07:54:05;;;;;;;74.13;5.20;;;;;;;6.11;100.00;97110.97;4984747;28;20022;-53
2023/11/24 07:56:34;;;;;;;96.53;6.38;;;;;;;6.18;100.00;97111.84;4984352;28;20168;-55
2023/11/24 07:58:59;;;;;;;126.22;9.18;;;;;;;6.04;100.00;97112.69;4985844;28;20017;-54
2023/11/24 08:01:24;;;;;;;140.70;8.52;;;;;;;6.28;100.00;97108.41;4986414;28;20076;-55
2023/11/24 08:03:50;;;;;;;111.95;8.48;;;;;;;6.62;100.00;97108.38;4987300;28;20052;-55
2023/11/24 08:06:15;;;;;;;52.65;4.10;;;;;;;6.66;100.00;97103.19;4991171;28;20374;-55
2023/11/24 08:08:41;;;;;;;70.63;5.28;;;;;;;6.64;100.00;97106.63;4990572;28;20057;-53
2023/11/24 08:11:06;;;;;;;59.20;4.63;;;;;;;6.74;100.00;97101.44;4987549;28;20434;-55
2023/11/24 08:13:32;;;;;;;41.97;4.00;;;;;;;6.67;100.00;97107.47;4990992;28;20040;-55
2023/11/24 08:15:58;;;;;;;113.28;7.10;;;;;;;7.31;100.00;97095.22;4989093;28;20041;-53
2023/11/24 08:18:23;;;;;;;71.13;4.88;;;;;;;7.79;100.00;97099.25;4990649;28;20390;-53
2023/11/24 08:20:49;;;;;;;96.07;6.97;;;;;;;7.98;100.00;97088.78;4988180;28;20050;-55
2023/11/24 08:23:15;;;;;;;85.57;5.85;;;;;;;7.94;100.00;97077.56;4989527;28;20061;-55
2023/11/24 08:25:41;;;;;;;46.80;4.20;;;;;;;8.32;100.00;97065.22;4992145;28;20033;-55
2023/11/24 08:28:06;;;;;;;54.08;4.28;;;;;;;7.99;100.00;97064.63;4988430;28;20026;-54
2023/11/24 08:30:34;;;;;;;62.03;4.65;;;;;;;8.24;100.00;97065.25;4989862;28;20487;-54
2023/11/24 08:33:00;;;;;;;111.57;8.02;;;;;;;8.25;100.00;97060.94;4989642;28;20041;-55
2023/11/24 08:35:25;;;;;;;90.43;6.45;;;;;;;8.44;100.00;97072.00;4986497;28;20029;-53
2023/11/24 08:37:51;;;;;;;102.78;7.38;;;;;;;8.44;100.00;97066.81;4989383;28;20018;-52
2023/11/24 08:40:17;;;;;;;61.17;5.25;;;;;;;8.11;100.00;97056.75;4987954;28;20379;-55
2023/11/24 08:42:44;;;;;;;85.30;6.43;;;;;;;8.43;100.00;97055.56;4991137;28;20026;-52
2023/11/24 08:45:09;;;;;;;64.00;6.05;;;;;;;8.26;100.00;97041.94;4988162;28;20030;-55
2023/11/24 08:47:35;;;;;;;53.65;5.57;;;;;;;8.42;100.00;97038.31;4990945;28;20065;-55
2023/11/24 08:50:00;;;;;;;123.18;9.57;;;;;;;8.58;100.00;97045.97;4988268;28;20037;-55
2023/11/24 08:52:26;;;;;;;85.03;7.05;;;;;;;8.49;100.00;97033.09;4989862;28;20437;-52
2023/11/24 08:54:51;;;;;;;85.18;6.63;;;;;;;8.33;100.00;97035.81;4991965;28;20025;-55
2023/11/24 08:57:17;;;;;;;63.95;5.25;;;;;;;8.41;100.00;97036.59;4988162;28;20394;-55
2023/11/24 08:59:43;;;;;;;74.47;5.78;;;;;;;9.04;100.00;97030.75;4988008;28;20041;-52
2023/11/24 09:02:09;;;;;;;52.50;4.80;;;;;;;8.93;100.00;97026.56;4984617;28;20041;-55
2023/11/24 09:04:34;;;;;;;61.10;5.47;;;;;;;9.38;100.00;97018.19;4990607;28;20018;-55
2023/11/24 09:07:00;;;;;;;105.57;7.40;;;;;;;9.42;100.00;97003.44;4990350;28;20090;-55
2023/11/24 09:09:27;;;;;;;74.15;7.78;;;;;;;8.87;100.00;97003.28;4992676;28;20030;-54
2023/11/24 09:11:52;;;;;;;99.35;7.50;;;;;;;9.54;100.00;97001.53;4989522;28;20040;-54
2023/11/24 09:14:18;;;;;;;69.38;6.38;;;;;;;9.84;100.00;97001.94;4989747;28;20026;-54
2023/11/24 09:16:43;;;;;;;62.30;4.78;;;;;;;9.55;100.00;96990.28;4988494;28;20450;-54
2023/11/24 09:19:09;;;;;;;78.95;5.70;;;;;;;9.23;100.00;96995.91;4990208;28;20042;-55
2023/11/24 09:21:34;;;;;;;37.47;3.80;;;;;;;9.40;100.00;96993.94;4989281;28;20089;-55
2023/11/24 09:24:01;;;;;;;104.57;7.60;;;;;;;9.88;100.00;96986.28;4988749;28;20170;-55
2023/11/24 09:26:27;;;;;;;79.07;6.03;;;;;;;9.51;100.00;96989.47;4989144;28;20025;-55
2023/11/24 09:28:53;;;;;;;82.72;6.05;;;;;;;9.96;100.00;96987.88;4989062;28;20080;-55
2023/11/24 09:31:19;;;;;;;56.50;4.78;;;;;;;9.83;100.00;96984.66;4988063;28;20398;-54
2023/11/24 09:33:44;;;;;;;76.78;5.85;;;;;;;9.62;100.00;96990.13;4990179;28;20053;-55
2023/11/24 09:36:10;;;;;;;41.05;3.78;;;;;;;9.97;100.00;96982.66;4988181;28;20141;-55
2023/11/24 09:38:35;;;;;;;42.25;4.07;;;;;;;9.99;100.00;96983.47;4988941;28;20022;-55
2023/11/24 09:41:07;;;;;;;123.95;8.88;;;;;;;9.62;100.00;96990.13;4987798;28;20068;-53
2023/11/24 09:43:34;;;;;;;69.10;9.43;;;;;;;9.18;100.00;96976.97;4988059;28;20516;-52
2023/11/24 09:45:59;;;;;;;124.88;12.88;;;;;;;9.23;100.00;96975.16;4988235;28;20490;-53
2023/11/24 09:48:27;;;;;;;73.45;5.72;;;;;;;9.20;100.00;96964.81;4989586;28;20080;-53
2023/11/24 09:50:53;;;;;;;59.10;4.70;;;;;;;9.89;100.00;96964.63;4987591;28;20038;-53
2023/11/24 09:53:20;;;;;;;124.90;15.63;;;;;;;9.11;100.00;96959.78;4989894;28;20064;-55
2023/11/24 09:55:45;;;;;;;76.65;5.50;;;;;;;9.66;100.00;96946.84;4985530;28;20038;-53
2023/11/24 09:58:10;;;;;;;51.88;4.45;;;;;;;9.21;100.00;96950.13;4991022;28;20064;-54
2023/11/24 10:00:36;;;;;;;64.10;6.53;;;;;;;9.38;100.00;96944.66;4989004;28;20033;-54
2023/11/24 10:03:06;;;;;;;410.17;194.68;;;;;;;-148.24;100.00;61531.34;4996528;28;20030;-56
2023/11/24 10:05:32;;;;;;;51.03;5.13;;;;;;;6.40;100.00;96926.75;4989188;28;20038;-53
2023/11/24 10:07:59;;;;;;;220.90;49.10;;;;;;;6.31;100.00;96921.63;4990044;28;20033;-54
2023/11/24 10:10:26;;;;;;;147.30;27.17;;;;;;;6.08;100.00;96915.66;4992043;28;20246;-54
2023/11/24 10:12:59;;;;;;;237.43;80.50;;;;;;;5.92;100.00;96919.09;4992084;28;20029;-54
2023/11/24 10:15:25;;;;;;;78.10;5.47;;;;;;;5.82;100.00;96911.38;4994380;28;20033;-54
2023/11/24 10:17:51;;;;;;;167.52;21.98;;;;;;;5.80;100.00;96901.91;4993664;28;20080;-54
2023/11/24 10:20:22;;;;;;;66.40;5.22;;;;;;;5.86;100.00;96895.03;4990887;28;20033;-53
2023/11/24 10:22:49;;;;;;;417.25;96.70;;;;;;;5.80;100.00;96879.56;4991481;28;20022;-55
2023/11/24 10:25:20;;;;;;;381.48;63.05;;;;;;;5.88;100.00;96876.97;4991352;28;20064;-54
2023/11/24 10:27:46;;;;;;;201.02;40.42;;;;;;;6.10;100.00;96882.97;4995191;28;20026;-54
2023/11/24 10:30:12;;;;;;;128.98;8.45;;;;;;;6.45;100.00;96881.09;4991351;28;20031;-54
2023/11/24 10:32:39;;;;;;;74.45;4.60;;;;;;;7.39;100.00;96885.66;4991597;28;20061;-54
2023/11/24 10:35:06;;;;;;;58.92;4.10;;;;;;;7.50;100.00;96889.00;4991155;28;20041;-54
2023/11/24 10:37:33;;;;;;;74.53;4.88;;;;;;;7.58;100.00;96881.19;4991903;28;20039;-54
2023/11/24 10:40:03;;;;;;;117.00;8.15;;;;;;;7.60;100.00;96876.84;4992327;28;20193;-54
2023/11/24 10:42:33;;;;;;;61.33;4.32;;;;;;;7.11;100.00;96873.81;4993354;28;20048;-54
2023/11/24 10:45:05;;;;;;;107.72;7.05;;;;;;;7.11;100.00;96872.94;4990130;28;20029;-54
2023/11/24 10:47:38;;;;;;;56.50;4.10;;;;;;;7.12;100.00;96874.63;4990591;28;20036;-54
2023/11/24 10:50:16;;;;;;;134.50;8.00;;;;;;;6.96;100.00;96866.16;4991849;28;20026;-54
2023/11/24 10:53:02;;;;;;;48.05;3.45;;;;;;;6.99;100.00;96856.66;4993397;28;20501;-54
2023/11/24 10:55:30;;;;;;;79.63;4.93;;;;;;;6.87;100.00;96857.59;4989772;28;20125;-53
2023/11/24 10:57:56;;;;;;;42.90;3.42;;;;;;;7.14;100.00;96862.56;4990348;28;20285;-54
2023/11/24 11:00:23;;;;;;;68.22;4.18;;;;;;;6.60;100.00;96858.59;4989929;28;20053;-54
2023/11/24 11:02:50;;;;;;;63.58;4.45;;;;;;;6.64;100.00;96856.00;4992870;28;20034;-54